sensor_id;sensor_type;location;lat;lon;timestamp;P1;durP1;ratioP1;P2;durP2;ratioP2
31660;SDS011;18267;52.234;7.444;2023-10-08T00:00:48;16.25;;;5.00;;
31660;SDS011;18267;52.234;7.444;2023-10-08T00:03:20;15.05;;;4.72;;
31660;SDS011;18267;52.234;7.444;2023-10-08T00:05:46;14.48;;;4.20;;
31660;SDS011;18267;52.234;7.444;2023-10-08T00:08:14;15.52;;;4.47;;
31660;SDS011;18267;52.234;7.444;2023-10-08T00:10:41;15.48;;;4.60;;
31660;SDS011;18267;52.234;7.444;2023-10-08T00:13:09;21.63;;;4.88;;
31660;SDS011;18267;52.234;7.444;2023-10-08T00:15:35;16.50;;;5.32;;
31660;SDS011;18267;52.234;7.444;2023-10-08T00:18:02;11.23;;;4.60;;
31660;SDS011;18267;52.234;7.444;2023-10-08T00:20:30;18.30;;;5.28;;
31660;SDS011;18267;52.234;7.444;2023-10-08T00:23:02;16.70;;;4.93;;
31660;SDS011;18267;52.234;7.444;2023-10-08T00:25:32;19.63;;;4.72;;
31660;SDS011;18267;52.234;7.444;2023-10-08T00:27:59;17.38;;;5.10;;
31660;SDS011;18267;52.234;7.444;2023-10-08T00:30:27;11.50;;;4.35;;
31660;SDS011;18267;52.234;7.444;2023-10-08T00:32:52;20.25;;;5.05;;
31660;SDS011;18267;52.234;7.444;2023-10-08T00:35:18;21.10;;;4.75;;
31660;SDS011;18267;52.234;7.444;2023-10-08T00:37:45;17.55;;;5.25;;
31660;SDS011;18267;52.234;7.444;2023-10-08T00:40:13;23.48;;;5.75;;
31660;SDS011;18267;52.234;7.444;2023-10-08T00:42:44;22.00;;;6.10;;
31660;SDS011;18267;52.234;7.444;2023-10-08T00:45:11;32.95;;;6.55;;
31660;SDS011;18267;52.234;7.444;2023-10-08T00:47:40;20.70;;;6.70;;
31660;SDS011;18267;52.234;7.444;2023-10-08T00:50:09;31.70;;;7.10;;
31660;SDS011;18267;52.234;7.444;2023-10-08T00:52:44;25.77;;;6.90;;
31660;SDS011;18267;52.234;7.444;2023-10-08T00:55:22;20.80;;;7.82;;
31660;SDS011;18267;52.234;7.444;2023-10-08T00:57:55;18.17;;;7.00;;
31660;SDS011;18267;52.234;7.444;2023-10-08T01:00:23;31.52;;;8.07;;
31660;SDS011;18267;52.234;7.444;2023-10-08T01:02:58;26.55;;;7.63;;
31660;SDS011;18267;52.234;7.444;2023-10-08T01:05:27;28.73;;;8.32;;
31660;SDS011;18267;52.234;7.444;2023-10-08T01:08:11;19.58;;;8.15;;
31660;SDS011;18267;52.234;7.444;2023-10-08T01:10:47;30.88;;;8.63;;
31660;SDS011;18267;52.234;7.444;2023-10-08T01:13:13;18.25;;;5.55;;
31660;SDS011;18267;52.234;7.444;2023-10-08T01:15:44;4.15;;;2.08;;
31660;SDS011;18267;52.234;7.444;2023-10-08T01:18:12;2.33;;;1.35;;
31660;SDS011;18267;52.234;7.444;2023-10-08T01:20:53;1.83;;;1.00;;
31660;SDS011;18267;52.234;7.444;2023-10-08T01:23:20;1.63;;;1.08;;
31660;SDS011;18267;52.234;7.444;2023-10-08T01:25:47;1.67;;;1.13;;
31660;SDS011;18267;52.234;7.444;2023-10-08T01:28:16;3.60;;;1.20;;
31660;SDS011;18267;52.234;7.444;2023-10-08T01:30:50;1.92;;;1.10;;
31660;SDS011;18267;52.234;7.444;2023-10-08T01:33:19;1.73;;;1.00;;
31660;SDS011;18267;52.234;7.444;2023-10-08T01:35:46;0.93;;;0.90;;
31660;SDS011;18267;52.234;7.444;2023-10-08T01:38:13;1.10;;;0.70;;
31660;SDS011;18267;52.234;7.444;2023-10-08T01:40:41;0.80;;;0.80;;
31660;SDS011;18267;52.234;7.444;2023-10-08T01:43:07;0.73;;;0.73;;
31660;SDS011;18267;52.234;7.444;2023-10-08T01:45:35;0.80;;;0.80;;
31660;SDS011;18267;52.234;7.444;2023-10-08T01:48:05;0.40;;;0.40;;
31660;SDS011;18267;52.234;7.444;2023-10-08T01:50:34;0.75;;;0.50;;
31660;SDS011;18267;52.234;7.444;2023-10-08T01:53:00;0.40;;;0.38;;
31660;SDS011;18267;52.234;7.444;2023-10-08T01:55:26;0.55;;;0.45;;
31660;SDS011;18267;52.234;7.444;2023-10-08T01:57:51;2.40;;;0.20;;
31660;SDS011;18267;52.234;7.444;2023-10-08T02:00:17;0.30;;;0.15;;
31660;SDS011;18267;52.234;7.444;2023-10-08T02:02:51;1.75;;;0.30;;
31660;SDS011;18267;52.234;7.444;2023-10-08T02:05:23;1.63;;;0.50;;
31660;SDS011;18267;52.234;7.444;2023-10-08T02:07:48;0.50;;;0.40;;
31660;SDS011;18267;52.234;7.444;2023-10-08T02:10:14;0.40;;;0.32;;
31660;SDS011;18267;52.234;7.444;2023-10-08T02:12:40;0.52;;;0.50;;
31660;SDS011;18267;52.234;7.444;2023-10-08T02:15:06;0.70;;;0.45;;
31660;SDS011;18267;52.234;7.444;2023-10-08T02:17:33;0.70;;;0.68;;
31660;SDS011;18267;52.234;7.444;2023-10-08T02:19:59;0.57;;;0.50;;
31660;SDS011;18267;52.234;7.444;2023-10-08T02:22:25;1.63;;;0.40;;
31660;SDS011;18267;52.234;7.444;2023-10-08T02:24:51;0.52;;;0.50;;
31660;SDS011;18267;52.234;7.444;2023-10-08T02:27:18;0.38;;;0.38;;
31660;SDS011;18267;52.234;7.444;2023-10-08T02:29:44;0.50;;;0.50;;
31660;SDS011;18267;52.234;7.444;2023-10-08T02:32:09;4.05;;;0.60;;
31660;SDS011;18267;52.234;7.444;2023-10-08T02:34:35;0.55;;;0.50;;
31660;SDS011;18267;52.234;7.444;2023-10-08T02:37:01;0.40;;;0.40;;
31660;SDS011;18267;52.234;7.444;2023-10-08T02:39:28;1.13;;;0.63;;
31660;SDS011;18267;52.234;7.444;2023-10-08T02:41:57;1.00;;;0.55;;
31660;SDS011;18267;52.234;7.444;2023-10-08T02:44:25;0.70;;;0.50;;
31660;SDS011;18267;52.234;7.444;2023-10-08T02:46:52;0.73;;;0.40;;
31660;SDS011;18267;52.234;7.444;2023-10-08T02:49:18;0.63;;;0.55;;
31660;SDS011;18267;52.234;7.444;2023-10-08T02:51:45;0.60;;;0.60;;
31660;SDS011;18267;52.234;7.444;2023-10-08T02:54:15;0.60;;;0.60;;
31660;SDS011;18267;52.234;7.444;2023-10-08T02:56:46;3.13;;;0.70;;
31660;SDS011;18267;52.234;7.444;2023-10-08T02:59:16;0.73;;;0.45;;
31660;SDS011;18267;52.234;7.444;2023-10-08T03:01:41;3.83;;;0.50;;
31660;SDS011;18267;52.234;7.444;2023-10-08T03:04:08;1.30;;;0.30;;
31660;SDS011;18267;52.234;7.444;2023-10-08T03:06:44;0.22;;;0.22;;
31660;SDS011;18267;52.234;7.444;2023-10-08T03:09:14;0.30;;;0.30;;
31660;SDS011;18267;52.234;7.444;2023-10-08T03:11:40;4.22;;;0.45;;
31660;SDS011;18267;52.234;7.444;2023-10-08T03:14:12;0.38;;;0.38;;
31660;SDS011;18267;52.234;7.444;2023-10-08T03:16:46;0.40;;;0.40;;
31660;SDS011;18267;52.234;7.444;2023-10-08T03:19:16;0.40;;;0.35;;
31660;SDS011;18267;52.234;7.444;2023-10-08T03:21:46;1.25;;;0.52;;
31660;SDS011;18267;52.234;7.444;2023-10-08T03:24:15;0.50;;;0.43;;
31660;SDS011;18267;52.234;7.444;2023-10-08T03:27:03;2.58;;;0.70;;
31660;SDS011;18267;52.234;7.444;2023-10-08T03:29:37;2.92;;;0.60;;
31660;SDS011;18267;52.234;7.444;2023-10-08T03:32:06;0.80;;;0.80;;
31660;SDS011;18267;52.234;7.444;2023-10-08T03:34:38;1.00;;;0.68;;
31660;SDS011;18267;52.234;7.444;2023-10-08T03:37:07;1.05;;;0.82;;
31660;SDS011;18267;52.234;7.444;2023-10-08T03:39:33;2.63;;;0.88;;
31660;SDS011;18267;52.234;7.444;2023-10-08T03:42:21;3.72;;;1.38;;
31660;SDS011;18267;52.234;7.444;2023-10-08T03:44:50;2.30;;;1.20;;
31660;SDS011;18267;52.234;7.444;2023-10-08T03:47:20;4.00;;;1.00;;
31660;SDS011;18267;52.234;7.444;2023-10-08T03:49:48;1.25;;;0.90;;
31660;SDS011;18267;52.234;7.444;2023-10-08T03:52:16;2.38;;;1.30;;
31660;SDS011;18267;52.234;7.444;2023-10-08T03:54:47;0.80;;;0.75;;
31660;SDS011;18267;52.234;7.444;2023-10-08T03:57:13;1.63;;;1.10;;
31660;SDS011;18267;52.234;7.444;2023-10-08T03:59:44;1.20;;;0.93;;
31660;SDS011;18267;52.234;7.444;2023-10-08T04:02:13;2.25;;;1.42;;
31660;SDS011;18267;52.234;7.444;2023-10-08T04:04:40;1.60;;;1.40;;
31660;SDS011;18267;52.234;7.444;2023-10-08T04:07:17;2.00;;;1.30;;
31660;SDS011;18267;52.234;7.444;2023-10-08T04:09:58;2.15;;;1.48;;
31660;SDS011;18267;52.234;7.444;2023-10-08T04:12:34;1.70;;;1.10;;
31660;SDS011;18267;52.234;7.444;2023-10-08T04:15:03;1.38;;;1.08;;
31660;SDS011;18267;52.234;7.444;2023-10-08T04:17:33;2.63;;;1.25;;
31660;SDS011;18267;52.234;7.444;2023-10-08T04:20:09;1.90;;;1.25;;
31660;SDS011;18267;52.234;7.444;2023-10-08T04:22:56;1.67;;;1.30;;
31660;SDS011;18267;52.234;7.444;2023-10-08T04:25:24;2.00;;;1.80;;
31660;SDS011;18267;52.234;7.444;2023-10-08T04:27:53;2.45;;;1.35;;
31660;SDS011;18267;52.234;7.444;2023-10-08T04:30:23;1.42;;;1.30;;
31660;SDS011;18267;52.234;7.444;2023-10-08T04:32:59;1.50;;;1.13;;
31660;SDS011;18267;52.234;7.444;2023-10-08T04:35:35;1.73;;;1.33;;
31660;SDS011;18267;52.234;7.444;2023-10-08T04:38:03;2.42;;;1.58;;
31660;SDS011;18267;52.234;7.444;2023-10-08T04:40:29;2.42;;;1.83;;
31660;SDS011;18267;52.234;7.444;2023-10-08T04:43:04;2.97;;;1.95;;
31660;SDS011;18267;52.234;7.444;2023-10-08T04:45:29;2.38;;;1.98;;
31660;SDS011;18267;52.234;7.444;2023-10-08T04:47:59;4.93;;;2.20;;
31660;SDS011;18267;52.234;7.444;2023-10-08T04:50:24;2.97;;;1.88;;
31660;SDS011;18267;52.234;7.444;2023-10-08T04:52:55;2.30;;;1.58;;
31660;SDS011;18267;52.234;7.444;2023-10-08T04:55:24;3.25;;;1.92;;
31660;SDS011;18267;52.234;7.444;2023-10-08T04:57:54;2.55;;;2.10;;
31660;SDS011;18267;52.234;7.444;2023-10-08T05:00:20;4.18;;;1.73;;
31660;SDS011;18267;52.234;7.444;2023-10-08T05:03:06;2.83;;;1.92;;
31660;SDS011;18267;52.234;7.444;2023-10-08T05:05:41;4.40;;;1.95;;
31660;SDS011;18267;52.234;7.444;2023-10-08T05:08:36;3.15;;;1.95;;
31660;SDS011;18267;52.234;7.444;2023-10-08T05:11:23;2.65;;;2.00;;
31660;SDS011;18267;52.234;7.444;2023-10-08T05:14:07;4.13;;;2.25;;
31660;SDS011;18267;52.234;7.444;2023-10-08T05:16:41;5.45;;;2.15;;
31660;SDS011;18267;52.234;7.444;2023-10-08T05:19:25;3.42;;;2.22;;
31660;SDS011;18267;52.234;7.444;2023-10-08T05:22:12;2.70;;;2.05;;
31660;SDS011;18267;52.234;7.444;2023-10-08T05:24:57;3.45;;;2.45;;
31660;SDS011;18267;52.234;7.444;2023-10-08T05:27:36;3.58;;;2.40;;
31660;SDS011;18267;52.234;7.444;2023-10-08T05:30:27;2.90;;;2.25;;
31660;SDS011;18267;52.234;7.444;2023-10-08T05:33:07;2.92;;;2.47;;
31660;SDS011;18267;52.234;7.444;2023-10-08T05:35:34;3.78;;;2.13;;
31660;SDS011;18267;52.234;7.444;2023-10-08T05:38:10;2.90;;;2.42;;
31660;SDS011;18267;52.234;7.444;2023-10-08T05:40:57;3.20;;;2.20;;
31660;SDS011;18267;52.234;7.444;2023-10-08T05:43:23;4.10;;;2.45;;
31660;SDS011;18267;52.234;7.444;2023-10-08T05:46:02;3.10;;;2.00;;
31660;SDS011;18267;52.234;7.444;2023-10-08T05:48:46;3.10;;;2.80;;
31660;SDS011;18267;52.234;7.444;2023-10-08T05:51:26;4.35;;;3.15;;
31660;SDS011;18267;52.234;7.444;2023-10-08T05:54:19;3.30;;;2.83;;
31660;SDS011;18267;52.234;7.444;2023-10-08T05:56:52;3.88;;;2.47;;
31660;SDS011;18267;52.234;7.444;2023-10-08T05:59:37;6.18;;;3.25;;
31660;SDS011;18267;52.234;7.444;2023-10-08T06:02:17;7.28;;;3.13;;
31660;SDS011;18267;52.234;7.444;2023-10-08T06:04:54;3.92;;;3.22;;
31660;SDS011;18267;52.234;7.444;2023-10-08T06:07:37;6.63;;;3.83;;
31660;SDS011;18267;52.234;7.444;2023-10-08T06:12:57;5.03;;;3.47;;
31660;SDS011;18267;52.234;7.444;2023-10-08T06:15:48;5.40;;;3.00;;
31660;SDS011;18267;52.234;7.444;2023-10-08T06:18:15;5.82;;;3.10;;
31660;SDS011;18267;52.234;7.444;2023-10-08T06:20:45;4.80;;;3.67;;
31660;SDS011;18267;52.234;7.444;2023-10-08T06:23:12;5.60;;;3.70;;
31660;SDS011;18267;52.234;7.444;2023-10-08T06:25:42;5.70;;;3.60;;
31660;SDS011;18267;52.234;7.444;2023-10-08T06:28:11;5.00;;;3.47;;
31660;SDS011;18267;52.234;7.444;2023-10-08T06:30:37;6.25;;;4.00;;
31660;SDS011;18267;52.234;7.444;2023-10-08T06:33:05;11.50;;;4.18;;
31660;SDS011;18267;52.234;7.444;2023-10-08T06:35:32;5.80;;;3.95;;
31660;SDS011;18267;52.234;7.444;2023-10-08T06:37:58;6.05;;;4.05;;
31660;SDS011;18267;52.234;7.444;2023-10-08T06:40:25;4.88;;;3.05;;
31660;SDS011;18267;52.234;7.444;2023-10-08T06:43:03;4.82;;;3.63;;
31660;SDS011;18267;52.234;7.444;2023-10-08T06:45:39;4.80;;;3.42;;
31660;SDS011;18267;52.234;7.444;2023-10-08T06:48:06;5.78;;;3.40;;
31660;SDS011;18267;52.234;7.444;2023-10-08T06:50:32;5.25;;;3.25;;
31660;SDS011;18267;52.234;7.444;2023-10-08T06:53:01;11.82;;;4.00;;
31660;SDS011;18267;52.234;7.444;2023-10-08T06:55:33;4.10;;;3.63;;
31660;SDS011;18267;52.234;7.444;2023-10-08T06:58:04;4.50;;;3.33;;
31660;SDS011;18267;52.234;7.444;2023-10-08T07:00:40;4.97;;;3.60;;
31660;SDS011;18267;52.234;7.444;2023-10-08T07:03:12;4.35;;;3.47;;
31660;SDS011;18267;52.234;7.444;2023-10-08T07:05:43;4.72;;;3.28;;
31660;SDS011;18267;52.234;7.444;2023-10-08T07:08:19;7.30;;;3.60;;
31660;SDS011;18267;52.234;7.444;2023-10-08T07:10:45;6.07;;;3.45;;
31660;SDS011;18267;52.234;7.444;2023-10-08T07:13:11;5.18;;;3.72;;
31660;SDS011;18267;52.234;7.444;2023-10-08T07:15:42;11.18;;;6.10;;
31660;SDS011;18267;52.234;7.444;2023-10-08T07:18:14;14.13;;;7.03;;
31660;SDS011;18267;52.234;7.444;2023-10-08T07:20:40;13.75;;;5.75;;
31660;SDS011;18267;52.234;7.444;2023-10-08T07:23:10;11.93;;;6.55;;
31660;SDS011;18267;52.234;7.444;2023-10-08T07:25:57;9.52;;;5.63;;
31660;SDS011;18267;52.234;7.444;2023-10-08T07:28:44;6.38;;;3.90;;
31660;SDS011;18267;52.234;7.444;2023-10-08T07:31:14;12.55;;;4.97;;
31660;SDS011;18267;52.234;7.444;2023-10-08T07:33:48;6.03;;;4.07;;
31660;SDS011;18267;52.234;7.444;2023-10-08T07:36:40;4.28;;;3.55;;
31660;SDS011;18267;52.234;7.444;2023-10-08T07:39:06;5.28;;;3.85;;
31660;SDS011;18267;52.234;7.444;2023-10-08T07:41:34;7.07;;;3.95;;
31660;SDS011;18267;52.234;7.444;2023-10-08T07:44:00;7.30;;;4.70;;
31660;SDS011;18267;52.234;7.444;2023-10-08T07:46:26;8.65;;;3.70;;
31660;SDS011;18267;52.234;7.444;2023-10-08T07:48:55;4.40;;;3.55;;
31660;SDS011;18267;52.234;7.444;2023-10-08T07:51:22;8.30;;;4.57;;
31660;SDS011;18267;52.234;7.444;2023-10-08T07:53:48;7.13;;;4.35;;
31660;SDS011;18267;52.234;7.444;2023-10-08T07:56:14;6.72;;;4.10;;
31660;SDS011;18267;52.234;7.444;2023-10-08T07:58:40;7.07;;;4.78;;
31660;SDS011;18267;52.234;7.444;2023-10-08T08:01:09;5.53;;;3.90;;
31660;SDS011;18267;52.234;7.444;2023-10-08T08:03:37;6.47;;;4.22;;
31660;SDS011;18267;52.234;7.444;2023-10-08T08:06:06;6.07;;;4.50;;
31660;SDS011;18267;52.234;7.444;2023-10-08T08:08:33;5.50;;;3.78;;
31660;SDS011;18267;52.234;7.444;2023-10-08T08:11:01;8.07;;;3.80;;
31660;SDS011;18267;52.234;7.444;2023-10-08T08:13:32;6.82;;;4.30;;
31660;SDS011;18267;52.234;7.444;2023-10-08T08:15:59;9.77;;;4.07;;
31660;SDS011;18267;52.234;7.444;2023-10-08T08:18:35;5.03;;;3.15;;
31660;SDS011;18267;52.234;7.444;2023-10-08T08:21:01;5.53;;;3.45;;
31660;SDS011;18267;52.234;7.444;2023-10-08T08:23:28;5.18;;;3.90;;
31660;SDS011;18267;52.234;7.444;2023-10-08T08:25:55;5.70;;;3.92;;
31660;SDS011;18267;52.234;7.444;2023-10-08T08:28:31;7.78;;;3.78;;
31660;SDS011;18267;52.234;7.444;2023-10-08T08:31:01;9.45;;;3.55;;
31660;SDS011;18267;52.234;7.444;2023-10-08T08:33:29;8.30;;;3.38;;
31660;SDS011;18267;52.234;7.444;2023-10-08T08:36:17;9.82;;;4.70;;
31660;SDS011;18267;52.234;7.444;2023-10-08T08:38:42;11.70;;;4.45;;
31660;SDS011;18267;52.234;7.444;2023-10-08T08:41:08;7.07;;;3.80;;
31660;SDS011;18267;52.234;7.444;2023-10-08T08:43:37;6.57;;;3.05;;
31660;SDS011;18267;52.234;7.444;2023-10-08T08:46:08;7.47;;;3.03;;
31660;SDS011;18267;52.234;7.444;2023-10-08T08:48:37;10.98;;;4.50;;
31660;SDS011;18267;52.234;7.444;2023-10-08T08:51:07;5.45;;;3.80;;
31660;SDS011;18267;52.234;7.444;2023-10-08T08:53:34;6.43;;;3.47;;
31660;SDS011;18267;52.234;7.444;2023-10-08T08:56:05;8.95;;;3.47;;
31660;SDS011;18267;52.234;7.444;2023-10-08T08:58:34;9.05;;;3.30;;
31660;SDS011;18267;52.234;7.444;2023-10-08T09:01:00;6.28;;;2.78;;
31660;SDS011;18267;52.234;7.444;2023-10-08T09:03:28;12.82;;;3.30;;
31660;SDS011;18267;52.234;7.444;2023-10-08T09:06:00;8.65;;;3.88;;
31660;SDS011;18267;52.234;7.444;2023-10-08T09:08:29;10.35;;;3.47;;
31660;SDS011;18267;52.234;7.444;2023-10-08T09:11:01;9.63;;;3.90;;
31660;SDS011;18267;52.234;7.444;2023-10-08T09:13:33;5.97;;;3.65;;
31660;SDS011;18267;52.234;7.444;2023-10-08T09:16:15;7.05;;;3.30;;
31660;SDS011;18267;52.234;7.444;2023-10-08T09:18:45;10.32;;;3.50;;
31660;SDS011;18267;52.234;7.444;2023-10-08T09:21:16;5.65;;;2.60;;
31660;SDS011;18267;52.234;7.444;2023-10-08T09:23:51;9.00;;;2.72;;
31660;SDS011;18267;52.234;7.444;2023-10-08T09:26:22;6.38;;;2.80;;
31660;SDS011;18267;52.234;7.444;2023-10-08T09:28:49;8.27;;;2.70;;
31660;SDS011;18267;52.234;7.444;2023-10-08T09:31:16;5.43;;;2.47;;
31660;SDS011;18267;52.234;7.444;2023-10-08T09:33:43;17.50;;;3.45;;
31660;SDS011;18267;52.234;7.444;2023-10-08T09:36:18;6.20;;;3.20;;
31660;SDS011;18267;52.234;7.444;2023-10-08T09:38:45;4.65;;;2.65;;
31660;SDS011;18267;52.234;7.444;2023-10-08T09:41:13;5.43;;;2.63;;
31660;SDS011;18267;52.234;7.444;2023-10-08T09:43:39;7.70;;;2.50;;
31660;SDS011;18267;52.234;7.444;2023-10-08T09:46:15;7.10;;;2.45;;
31660;SDS011;18267;52.234;7.444;2023-10-08T09:48:51;4.88;;;2.33;;
31660;SDS011;18267;52.234;7.444;2023-10-08T09:51:19;5.32;;;2.55;;
31660;SDS011;18267;52.234;7.444;2023-10-08T09:53:52;11.50;;;3.50;;
31660;SDS011;18267;52.234;7.444;2023-10-08T09:56:35;6.25;;;3.60;;
31660;SDS011;18267;52.234;7.444;2023-10-08T09:59:04;6.18;;;2.83;;
31660;SDS011;18267;52.234;7.444;2023-10-08T10:01:29;8.85;;;3.00;;
31660;SDS011;18267;52.234;7.444;2023-10-08T10:03:57;3.25;;;2.20;;
31660;SDS011;18267;52.234;7.444;2023-10-08T10:06:25;8.68;;;3.45;;
31660;SDS011;18267;52.234;7.444;2023-10-08T10:08:52;7.75;;;2.10;;
31660;SDS011;18267;52.234;7.444;2023-10-08T10:11:25;5.05;;;1.88;;
31660;SDS011;18267;52.234;7.444;2023-10-08T10:13:59;6.45;;;1.90;;
31660;SDS011;18267;52.234;7.444;2023-10-08T10:16:25;9.02;;;2.03;;
31660;SDS011;18267;52.234;7.444;2023-10-08T10:18:57;12.05;;;2.83;;
31660;SDS011;18267;52.234;7.444;2023-10-08T10:21:25;9.15;;;2.03;;
31660;SDS011;18267;52.234;7.444;2023-10-08T10:23:54;9.30;;;2.15;;
31660;SDS011;18267;52.234;7.444;2023-10-08T10:26:28;8.77;;;1.90;;
31660;SDS011;18267;52.234;7.444;2023-10-08T10:29:22;12.30;;;1.95;;
31660;SDS011;18267;52.234;7.444;2023-10-08T10:31:49;4.22;;;1.50;;
31660;SDS011;18267;52.234;7.444;2023-10-08T10:34:19;8.48;;;1.85;;
31660;SDS011;18267;52.234;7.444;2023-10-08T10:36:45;5.70;;;1.77;;
31660;SDS011;18267;52.234;7.444;2023-10-08T10:39:19;5.90;;;2.03;;
31660;SDS011;18267;52.234;7.444;2023-10-08T10:41:59;9.02;;;1.77;;
31660;SDS011;18267;52.234;7.444;2023-10-08T10:44:31;7.43;;;1.63;;
31660;SDS011;18267;52.234;7.444;2023-10-08T10:46:58;5.70;;;1.88;;
31660;SDS011;18267;52.234;7.444;2023-10-08T10:49:43;5.60;;;1.83;;
31660;SDS011;18267;52.234;7.444;2023-10-08T10:52:25;2.58;;;1.63;;
31660;SDS011;18267;52.234;7.444;2023-10-08T10:55:10;31.88;;;11.05;;
31660;SDS011;18267;52.234;7.444;2023-10-08T10:57:40;27.80;;;10.88;;
31660;SDS011;18267;52.234;7.444;2023-10-08T11:00:07;9.45;;;3.13;;
31660;SDS011;18267;52.234;7.444;2023-10-08T11:02:52;4.37;;;1.70;;
31660;SDS011;18267;52.234;7.444;2023-10-08T11:05:21;3.47;;;1.40;;
31660;SDS011;18267;52.234;7.444;2023-10-08T11:07:53;2.28;;;1.27;;
31660;SDS011;18267;52.234;7.444;2023-10-08T11:10:25;8.63;;;1.35;;
31660;SDS011;18267;52.234;7.444;2023-10-08T11:12:53;2.80;;;0.98;;
31660;SDS011;18267;52.234;7.444;2023-10-08T11:15:19;5.57;;;1.20;;
31660;SDS011;18267;52.234;7.444;2023-10-08T11:17:48;4.70;;;1.05;;
31660;SDS011;18267;52.234;7.444;2023-10-08T11:20:25;4.70;;;1.63;;
31660;SDS011;18267;52.234;7.444;2023-10-08T11:22:51;4.22;;;1.35;;
31660;SDS011;18267;52.234;7.444;2023-10-08T11:25:25;5.28;;;1.60;;
31660;SDS011;18267;52.234;7.444;2023-10-08T11:27:55;5.45;;;1.00;;
31660;SDS011;18267;52.234;7.444;2023-10-08T11:30:30;8.38;;;1.17;;
31660;SDS011;18267;52.234;7.444;2023-10-08T11:33:00;3.13;;;0.93;;
31660;SDS011;18267;52.234;7.444;2023-10-08T11:35:25;5.18;;;1.30;;
31660;SDS011;18267;52.234;7.444;2023-10-08T11:37:57;9.10;;;1.63;;
31660;SDS011;18267;52.234;7.444;2023-10-08T11:40:26;1.38;;;0.80;;
31660;SDS011;18267;52.234;7.444;2023-10-08T11:42:57;7.63;;;1.10;;
31660;SDS011;18267;52.234;7.444;2023-10-08T11:45:28;1.98;;;0.90;;
31660;SDS011;18267;52.234;7.444;2023-10-08T11:48:03;5.63;;;1.17;;
31660;SDS011;18267;52.234;7.444;2023-10-08T11:50:38;5.35;;;1.30;;
31660;SDS011;18267;52.234;7.444;2023-10-08T11:53:04;4.85;;;0.77;;
31660;SDS011;18267;52.234;7.444;2023-10-08T11:55:34;4.95;;;1.20;;
31660;SDS011;18267;52.234;7.444;2023-10-08T11:58:07;2.05;;;0.50;;
31660;SDS011;18267;52.234;7.444;2023-10-08T12:00:39;5.55;;;1.20;;
31660;SDS011;18267;52.234;7.444;2023-10-08T12:03:12;4.00;;;0.95;;
31660;SDS011;18267;52.234;7.444;2023-10-08T12:05:43;3.40;;;1.10;;
31660;SDS011;18267;52.234;7.444;2023-10-08T12:08:12;4.47;;;1.73;;
31660;SDS011;18267;52.234;7.444;2023-10-08T12:10:41;3.75;;;1.60;;
31660;SDS011;18267;52.234;7.444;2023-10-08T12:13:11;8.07;;;1.58;;
31660;SDS011;18267;52.234;7.444;2023-10-08T12:15:37;4.97;;;1.42;;
31660;SDS011;18267;52.234;7.444;2023-10-08T12:18:03;3.28;;;1.40;;
31660;SDS011;18267;52.234;7.444;2023-10-08T12:20:48;4.80;;;1.27;;
31660;SDS011;18267;52.234;7.444;2023-10-08T12:23:14;8.77;;;1.40;;
31660;SDS011;18267;52.234;7.444;2023-10-08T12:25:50;3.08;;;1.80;;
31660;SDS011;18267;52.234;7.444;2023-10-08T12:28:17;4.40;;;1.40;;
31660;SDS011;18267;52.234;7.444;2023-10-08T12:30:44;5.45;;;1.20;;
31660;SDS011;18267;52.234;7.444;2023-10-08T12:33:10;6.15;;;1.23;;
31660;SDS011;18267;52.234;7.444;2023-10-08T12:35:40;5.60;;;1.83;;
31660;SDS011;18267;52.234;7.444;2023-10-08T12:38:06;6.43;;;1.10;;
31660;SDS011;18267;52.234;7.444;2023-10-08T12:40:33;3.65;;;1.23;;
31660;SDS011;18267;52.234;7.444;2023-10-08T12:43:21;5.88;;;1.23;;
31660;SDS011;18267;52.234;7.444;2023-10-08T12:45:51;4.72;;;1.40;;
31660;SDS011;18267;52.234;7.444;2023-10-08T12:48:23;4.03;;;1.40;;
31660;SDS011;18267;52.234;7.444;2023-10-08T12:50:51;4.65;;;1.50;;
31660;SDS011;18267;52.234;7.444;2023-10-08T12:53:23;6.03;;;1.63;;
31660;SDS011;18267;52.234;7.444;2023-10-08T12:56:00;3.95;;;1.10;;
31660;SDS011;18267;52.234;7.444;2023-10-08T12:58:30;1.73;;;1.30;;
31660;SDS011;18267;52.234;7.444;2023-10-08T13:01:03;6.32;;;1.33;;
31660;SDS011;18267;52.234;7.444;2023-10-08T13:03:29;5.18;;;1.00;;
31660;SDS011;18267;52.234;7.444;2023-10-08T13:05:58;4.85;;;1.10;;
31660;SDS011;18267;52.234;7.444;2023-10-08T13:08:31;2.42;;;0.93;;
31660;SDS011;18267;52.234;7.444;2023-10-08T13:10:57;4.20;;;1.10;;
31660;SDS011;18267;52.234;7.444;2023-10-08T13:13:26;6.25;;;1.27;;
31660;SDS011;18267;52.234;7.444;2023-10-08T13:15:52;3.70;;;1.02;;
31660;SDS011;18267;52.234;7.444;2023-10-08T13:18:21;4.80;;;0.90;;
31660;SDS011;18267;52.234;7.444;2023-10-08T13:20:50;5.53;;;1.17;;
31660;SDS011;18267;52.234;7.444;2023-10-08T13:23:16;5.47;;;1.23;;
31660;SDS011;18267;52.234;7.444;2023-10-08T13:25:43;5.90;;;0.98;;
31660;SDS011;18267;52.234;7.444;2023-10-08T13:28:11;2.00;;;0.75;;
31660;SDS011;18267;52.234;7.444;2023-10-08T13:30:37;4.22;;;0.70;;
31660;SDS011;18267;52.234;7.444;2023-10-08T13:33:03;4.45;;;0.90;;
31660;SDS011;18267;52.234;7.444;2023-10-08T13:35:29;6.28;;;0.60;;
31660;SDS011;18267;52.234;7.444;2023-10-08T13:37:54;6.20;;;0.90;;
31660;SDS011;18267;52.234;7.444;2023-10-08T13:40:21;2.55;;;0.63;;
31660;SDS011;18267;52.234;7.444;2023-10-08T13:42:57;4.13;;;0.90;;
31660;SDS011;18267;52.234;7.444;2023-10-08T13:45:23;3.60;;;0.95;;
31660;SDS011;18267;52.234;7.444;2023-10-08T13:47:54;2.45;;;0.70;;
31660;SDS011;18267;52.234;7.444;2023-10-08T13:50:21;3.03;;;0.90;;
31660;SDS011;18267;52.234;7.444;2023-10-08T13:52:47;4.03;;;0.80;;
31660;SDS011;18267;52.234;7.444;2023-10-08T13:55:12;4.00;;;0.82;;
31660;SDS011;18267;52.234;7.444;2023-10-08T13:57:38;3.75;;;1.08;;
31660;SDS011;18267;52.234;7.444;2023-10-08T14:00:06;4.78;;;0.65;;
31660;SDS011;18267;52.234;7.444;2023-10-08T14:02:41;2.35;;;0.88;;
31660;SDS011;18267;52.234;7.444;2023-10-08T14:05:07;9.15;;;1.20;;
31660;SDS011;18267;52.234;7.444;2023-10-08T14:07:34;3.13;;;0.60;;
31660;SDS011;18267;52.234;7.444;2023-10-08T14:10:00;2.38;;;0.75;;
31660;SDS011;18267;52.234;7.444;2023-10-08T14:12:30;1.73;;;0.88;;
31660;SDS011;18267;52.234;7.444;2023-10-08T14:15:00;4.72;;;1.13;;
31660;SDS011;18267;52.234;7.444;2023-10-08T14:17:32;2.92;;;1.00;;
31660;SDS011;18267;52.234;7.444;2023-10-08T14:20:13;2.55;;;0.60;;
31660;SDS011;18267;52.234;7.444;2023-10-08T14:22:46;3.00;;;0.60;;
31660;SDS011;18267;52.234;7.444;2023-10-08T14:25:22;6.10;;;1.10;;
31660;SDS011;18267;52.234;7.444;2023-10-08T14:27:52;3.38;;;1.00;;
31660;SDS011;18267;52.234;7.444;2023-10-08T14:30:18;1.10;;;0.60;;
31660;SDS011;18267;52.234;7.444;2023-10-08T14:32:49;1.20;;;0.50;;
31660;SDS011;18267;52.234;7.444;2023-10-08T14:35:15;3.20;;;0.50;;
31660;SDS011;18267;52.234;7.444;2023-10-08T14:38:00;3.22;;;0.70;;
31660;SDS011;18267;52.234;7.444;2023-10-08T14:40:44;3.30;;;0.85;;
31660;SDS011;18267;52.234;7.444;2023-10-08T14:43:29;2.47;;;0.77;;
31660;SDS011;18267;52.234;7.444;2023-10-08T14:45:59;4.18;;;1.35;;
31660;SDS011;18267;52.234;7.444;2023-10-08T14:48:31;6.38;;;0.93;;
31660;SDS011;18267;52.234;7.444;2023-10-08T14:51:00;3.20;;;0.65;;
31660;SDS011;18267;52.234;7.444;2023-10-08T14:53:27;3.78;;;0.70;;
31660;SDS011;18267;52.234;7.444;2023-10-08T14:55:53;3.85;;;0.80;;
31660;SDS011;18267;52.234;7.444;2023-10-08T14:58:19;2.35;;;0.95;;
31660;SDS011;18267;52.234;7.444;2023-10-08T15:00:44;6.95;;;1.63;;
31660;SDS011;18267;52.234;7.444;2023-10-08T15:03:10;6.03;;;2.03;;
31660;SDS011;18267;52.234;7.444;2023-10-08T15:05:37;4.47;;;1.25;;
31660;SDS011;18267;52.234;7.444;2023-10-08T15:08:04;4.40;;;1.00;;
31660;SDS011;18267;52.234;7.444;2023-10-08T15:10:36;5.05;;;1.20;;